sensor_id;sensor_type;location;lat;lon;timestamp;P1;durP1;ratioP1;P2;durP2;ratioP2
5823;SDS011;2938;52.254;12.988;2022-10-31T00:00:46;43.10;;;21.30;;
5823;SDS011;2938;52.254;12.988;2022-10-31T00:03:11;31.05;;;19.60;;
5823;SDS011;2938;52.254;12.988;2022-10-31T00:05:40;26.83;;;16.27;;
5823;SDS011;2938;52.254;12.988;2022-10-31T00:08:06;25.38;;;16.05;;
5823;SDS011;2938;52.254;12.988;2022-10-31T00:10:31;21.27;;;16.08;;
5823;SDS011;2938;52.254;12.988;2022-10-31T00:12:56;25.55;;;16.02;;
5823;SDS011;2938;52.254;12.988;2022-10-31T00:15:22;26.58;;;14.50;;
5823;SDS011;2938;52.254;12.988;2022-10-31T00:17:47;30.48;;;15.65;;
5823;SDS011;2938;52.254;12.988;2022-10-31T00:20:12;28.52;;;14.07;;
5823;SDS011;2938;52.254;12.988;2022-10-31T00:22:40;24.60;;;16.20;;
5823;SDS011;2938;52.254;12.988;2022-10-31T00:25:05;26.08;;;13.98;;
5823;SDS011;2938;52.254;12.988;2022-10-31T00:27:31;22.13;;;15.55;;
5823;SDS011;2938;52.254;12.988;2022-10-31T00:29:56;30.05;;;16.10;;
5823;SDS011;2938;52.254;12.988;2022-10-31T00:32:21;22.75;;;14.57;;
5823;SDS011;2938;52.254;12.988;2022-10-31T00:34:47;29.80;;;15.77;;
5823;SDS011;2938;52.254;12.988;2022-10-31T00:37:12;22.40;;;13.45;;
5823;SDS011;2938;52.254;12.988;2022-10-31T00:39:37;33.53;;;14.70;;
5823;SDS011;2938;52.254;12.988;2022-10-31T00:42:03;25.10;;;13.73;;
5823;SDS011;2938;52.254;12.988;2022-10-31T00:44:28;24.20;;;13.88;;
5823;SDS011;2938;52.254;12.988;2022-10-31T00:46:53;24.98;;;14.90;;
5823;SDS011;2938;52.254;12.988;2022-10-31T00:49:19;21.58;;;14.05;;
5823;SDS011;2938;52.254;12.988;2022-10-31T00:51:44;31.17;;;15.18;;
5823;SDS011;2938;52.254;12.988;2022-10-31T00:54:09;22.88;;;15.57;;
5823;SDS011;2938;52.254;12.988;2022-10-31T00:56:35;22.27;;;16.48;;
5823;SDS011;2938;52.254;12.988;2022-10-31T00:59:00;19.92;;;15.43;;
5823;SDS011;2938;52.254;12.988;2022-10-31T01:01:25;25.13;;;16.88;;
5823;SDS011;2938;52.254;12.988;2022-10-31T01:03:51;22.60;;;16.60;;
5823;SDS011;2938;52.254;12.988;2022-10-31T01:06:16;26.38;;;15.25;;
5823;SDS011;2938;52.254;12.988;2022-10-31T01:08:41;23.95;;;14.52;;
5823;SDS011;2938;52.254;12.988;2022-10-31T01:11:14;26.92;;;17.15;;
5823;SDS011;2938;52.254;12.988;2022-10-31T01:13:47;27.77;;;16.15;;
5823;SDS011;2938;52.254;12.988;2022-10-31T01:16:16;22.17;;;15.32;;
5823;SDS011;2938;52.254;12.988;2022-10-31T01:18:42;23.70;;;17.30;;
5823;SDS011;2938;52.254;12.988;2022-10-31T01:21:09;22.70;;;16.00;;
5823;SDS011;2938;52.254;12.988;2022-10-31T01:23:37;22.50;;;16.88;;
5823;SDS011;2938;52.254;12.988;2022-10-31T01:26:04;20.83;;;16.38;;
5823;SDS011;2938;52.254;12.988;2022-10-31T01:28:32;22.05;;;15.88;;
5823;SDS011;2938;52.254;12.988;2022-10-31T01:31:02;18.13;;;15.25;;
5823;SDS011;2938;52.254;12.988;2022-10-31T01:33:29;24.33;;;14.85;;
5823;SDS011;2938;52.254;12.988;2022-10-31T01:35:54;31.63;;;16.20;;
5823;SDS011;2938;52.254;12.988;2022-10-31T01:38:20;26.10;;;16.00;;
5823;SDS011;2938;52.254;12.988;2022-10-31T01:40:45;22.52;;;15.13;;
5823;SDS011;2938;52.254;12.988;2022-10-31T01:43:12;18.73;;;14.05;;
5823;SDS011;2938;52.254;12.988;2022-10-31T01:45:38;26.50;;;14.65;;
5823;SDS011;2938;52.254;12.988;2022-10-31T01:48:04;20.48;;;14.07;;
5823;SDS011;2938;52.254;12.988;2022-10-31T01:50:34;22.00;;;14.70;;
5823;SDS011;2938;52.254;12.988;2022-10-31T01:53:01;20.83;;;13.90;;
5823;SDS011;2938;52.254;12.988;2022-10-31T01:55:28;23.95;;;16.00;;
5823;SDS011;2938;52.254;12.988;2022-10-31T01:57:57;24.10;;;15.90;;
5823;SDS011;2938;52.254;12.988;2022-10-31T02:00:24;22.92;;;15.63;;
5823;SDS011;2938;52.254;12.988;2022-10-31T02:02:50;20.75;;;13.57;;
5823;SDS011;2938;52.254;12.988;2022-10-31T02:05:17;19.15;;;13.65;;
5823;SDS011;2938;52.254;12.988;2022-10-31T02:07:49;19.70;;;13.40;;
5823;SDS011;2938;52.254;12.988;2022-10-31T02:10:19;21.08;;;14.95;;
5823;SDS011;2938;52.254;12.988;2022-10-31T02:12:50;18.87;;;12.53;;
5823;SDS011;2938;52.254;12.988;2022-10-31T02:15:17;15.27;;;12.20;;
5823;SDS011;2938;52.254;12.988;2022-10-31T02:17:42;19.27;;;14.48;;
5823;SDS011;2938;52.254;12.988;2022-10-31T02:20:18;17.70;;;12.60;;
5823;SDS011;2938;52.254;12.988;2022-10-31T02:31:18;18.27;;;11.57;;
5823;SDS011;2938;52.254;12.988;2022-10-31T02:33:50;17.15;;;13.73;;
5823;SDS011;2938;52.254;12.988;2022-10-31T02:36:45;17.42;;;13.27;;
5823;SDS011;2938;52.254;12.988;2022-10-31T02:39:18;18.60;;;13.75;;
5823;SDS011;2938;52.254;12.988;2022-10-31T02:44:24;25.83;;;16.52;;
5823;SDS011;2938;52.254;12.988;2022-10-31T02:46:54;32.40;;;16.70;;
5823;SDS011;2938;52.254;12.988;2022-10-31T02:49:28;21.88;;;15.18;;
5823;SDS011;2938;52.254;12.988;2022-10-31T02:51:57;23.60;;;15.88;;
5823;SDS011;2938;52.254;12.988;2022-10-31T02:54:24;35.03;;;16.27;;
5823;SDS011;2938;52.254;12.988;2022-10-31T02:56:51;22.20;;;14.63;;
5823;SDS011;2938;52.254;12.988;2022-10-31T02:59:20;31.55;;;15.68;;
5823;SDS011;2938;52.254;12.988;2022-10-31T03:01:55;18.42;;;15.07;;
5823;SDS011;2938;52.254;12.988;2022-10-31T03:04:42;25.70;;;15.27;;
5823;SDS011;2938;52.254;12.988;2022-10-31T03:15:19;20.52;;;13.50;;
5823;SDS011;2938;52.254;12.988;2022-10-31T03:17:50;22.50;;;13.35;;
5823;SDS011;2938;52.254;12.988;2022-10-31T03:20:22;27.83;;;14.73;;
5823;SDS011;2938;52.254;12.988;2022-10-31T03:22:50;22.02;;;14.95;;
5823;SDS011;2938;52.254;12.988;2022-10-31T03:25:17;24.58;;;15.75;;
5823;SDS011;2938;52.254;12.988;2022-10-31T03:27:43;29.33;;;15.18;;
5823;SDS011;2938;52.254;12.988;2022-10-31T03:30:09;18.55;;;13.02;;
5823;SDS011;2938;52.254;12.988;2022-10-31T03:32:36;21.50;;;15.18;;
5823;SDS011;2938;52.254;12.988;2022-10-31T03:35:04;32.35;;;15.02;;
5823;SDS011;2938;52.254;12.988;2022-10-31T03:37:30;27.23;;;13.32;;
5823;SDS011;2938;52.254;12.988;2022-10-31T03:40:00;24.75;;;13.63;;
5823;SDS011;2938;52.254;12.988;2022-10-31T03:42:28;23.73;;;14.20;;
5823;SDS011;2938;52.254;12.988;2022-10-31T03:45:03;22.10;;;15.13;;
5823;SDS011;2938;52.254;12.988;2022-10-31T03:47:32;24.58;;;14.38;;
5823;SDS011;2938;52.254;12.988;2022-10-31T03:49:58;28.50;;;15.05;;
5823;SDS011;2938;52.254;12.988;2022-10-31T03:52:26;19.95;;;15.07;;
5823;SDS011;2938;52.254;12.988;2022-10-31T03:54:56;24.27;;;15.98;;
5823;SDS011;2938;52.254;12.988;2022-10-31T03:57:27;23.38;;;14.40;;
5823;SDS011;2938;52.254;12.988;2022-10-31T04:00:07;23.23;;;15.50;;
5823;SDS011;2938;52.254;12.988;2022-10-31T04:02:35;19.42;;;13.70;;
5823;SDS011;2938;52.254;12.988;2022-10-31T04:05:06;22.88;;;14.05;;
5823;SDS011;2938;52.254;12.988;2022-10-31T04:07:34;20.35;;;13.27;;
5823;SDS011;2938;52.254;12.988;2022-10-31T04:10:04;23.92;;;13.55;;
5823;SDS011;2938;52.254;12.988;2022-10-31T04:12:31;28.02;;;15.27;;
5823;SDS011;2938;52.254;12.988;2022-10-31T04:14:57;21.63;;;14.50;;
5823;SDS011;2938;52.254;12.988;2022-10-31T04:17:24;25.55;;;15.45;;
5823;SDS011;2938;52.254;12.988;2022-10-31T04:19:52;27.25;;;15.20;;
5823;SDS011;2938;52.254;12.988;2022-10-31T04:22:18;23.92;;;14.00;;
5823;SDS011;2938;52.254;12.988;2022-10-31T04:24:43;28.33;;;13.45;;
5823;SDS011;2938;52.254;12.988;2022-10-31T04:27:11;25.75;;;13.98;;
5823;SDS011;2938;52.254;12.988;2022-10-31T04:29:36;21.88;;;13.57;;
5823;SDS011;2938;52.254;12.988;2022-10-31T04:32:01;25.60;;;14.82;;
5823;SDS011;2938;52.254;12.988;2022-10-31T04:34:27;31.20;;;14.80;;
5823;SDS011;2938;52.254;12.988;2022-10-31T04:36:52;30.05;;;14.43;;
5823;SDS011;2938;52.254;12.988;2022-10-31T04:39:18;31.25;;;14.23;;
5823;SDS011;2938;52.254;12.988;2022-10-31T04:41:43;18.92;;;12.32;;
5823;SDS011;2938;52.254;12.988;2022-10-31T04:44:08;13.93;;;11.35;;
5823;SDS011;2938;52.254;12.988;2022-10-31T04:46:34;17.13;;;11.07;;
5823;SDS011;2938;52.254;12.988;2022-10-31T04:48:59;20.80;;;15.48;;
5823;SDS011;2938;52.254;12.988;2022-10-31T04:51:24;25.05;;;14.45;;
5823;SDS011;2938;52.254;12.988;2022-10-31T04:53:49;24.40;;;13.38;;
5823;SDS011;2938;52.254;12.988;2022-10-31T04:56:15;22.50;;;11.55;;
5823;SDS011;2938;52.254;12.988;2022-10-31T04:58:40;19.10;;;12.73;;
5823;SDS011;2938;52.254;12.988;2022-10-31T05:01:08;22.50;;;11.38;;
5823;SDS011;2938;52.254;12.988;2022-10-31T05:03:34;18.85;;;12.15;;
5823;SDS011;2938;52.254;12.988;2022-10-31T05:05:59;18.98;;;11.73;;
5823;SDS011;2938;52.254;12.988;2022-10-31T05:08:24;19.45;;;11.38;;
5823;SDS011;2938;52.254;12.988;2022-10-31T05:10:50;17.85;;;11.15;;
5823;SDS011;2938;52.254;12.988;2022-10-31T05:13:15;17.77;;;12.60;;
5823;SDS011;2938;52.254;12.988;2022-10-31T05:15:41;23.05;;;11.02;;
5823;SDS011;2938;52.254;12.988;2022-10-31T05:18:06;15.60;;;11.60;;
5823;SDS011;2938;52.254;12.988;2022-10-31T05:20:32;21.13;;;12.60;;
5823;SDS011;2938;52.254;12.988;2022-10-31T05:22:58;21.90;;;13.43;;
5823;SDS011;2938;52.254;12.988;2022-10-31T05:25:24;32.33;;;14.63;;
5823;SDS011;2938;52.254;12.988;2022-10-31T05:27:51;27.40;;;13.18;;
5823;SDS011;2938;52.254;12.988;2022-10-31T05:30:21;25.20;;;13.43;;
5823;SDS011;2938;52.254;12.988;2022-10-31T05:32:48;20.52;;;13.25;;
5823;SDS011;2938;52.254;12.988;2022-10-31T05:35:21;23.25;;;15.38;;
5823;SDS011;2938;52.254;12.988;2022-10-31T05:37:57;23.95;;;15.02;;
5823;SDS011;2938;52.254;12.988;2022-10-31T05:40:23;21.70;;;12.63;;
5823;SDS011;2938;52.254;12.988;2022-10-31T05:42:50;19.02;;;12.88;;
5823;SDS011;2938;52.254;12.988;2022-10-31T05:45:17;26.30;;;14.52;;
5823;SDS011;2938;52.254;12.988;2022-10-31T05:47:55;20.95;;;13.25;;
5823;SDS011;2938;52.254;12.988;2022-10-31T05:50:22;20.42;;;12.32;;
5823;SDS011;2938;52.254;12.988;2022-10-31T05:52:53;21.52;;;12.88;;
5823;SDS011;2938;52.254;12.988;2022-10-31T05:55:22;21.25;;;13.02;;
5823;SDS011;2938;52.254;12.988;2022-10-31T05:57:47;22.98;;;13.07;;
5823;SDS011;2938;52.254;12.988;2022-10-31T06:00:13;19.58;;;13.30;;
5823;SDS011;2938;52.254;12.988;2022-10-31T06:02:41;21.50;;;12.48;;
5823;SDS011;2938;52.254;12.988;2022-10-31T06:05:07;22.92;;;14.68;;
5823;SDS011;2938;52.254;12.988;2022-10-31T06:07:33;20.27;;;15.07;;
5823;SDS011;2938;52.254;12.988;2022-10-31T06:09:59;23.00;;;13.85;;
5823;SDS011;2938;52.254;12.988;2022-10-31T06:12:25;29.45;;;15.00;;
5823;SDS011;2938;52.254;12.988;2022-10-31T06:14:50;31.33;;;18.92;;
5823;SDS011;2938;52.254;12.988;2022-10-31T06:17:16;34.47;;;23.73;;
5823;SDS011;2938;52.254;12.988;2022-10-31T06:19:41;28.75;;;17.17;;
5823;SDS011;2938;52.254;12.988;2022-10-31T06:22:06;24.65;;;15.93;;
5823;SDS011;2938;52.254;12.988;2022-10-31T06:24:32;22.90;;;14.77;;
5823;SDS011;2938;52.254;12.988;2022-10-31T06:26:57;19.67;;;14.48;;
5823;SDS011;2938;52.254;12.988;2022-10-31T06:29:23;22.25;;;16.55;;
5823;SDS011;2938;52.254;12.988;2022-10-31T06:31:50;23.90;;;15.98;;
5823;SDS011;2938;52.254;12.988;2022-10-31T06:34:16;18.33;;;12.60;;
5823;SDS011;2938;52.254;12.988;2022-10-31T06:36:41;18.95;;;12.85;;
5823;SDS011;2938;52.254;12.988;2022-10-31T06:39:07;22.15;;;11.88;;
5823;SDS011;2938;52.254;12.988;2022-10-31T06:41:32;18.35;;;11.00;;
5823;SDS011;2938;52.254;12.988;2022-10-31T06:43:57;26.05;;;12.27;;
5823;SDS011;2938;52.254;12.988;2022-10-31T06:46:23;22.33;;;11.73;;
5823;SDS011;2938;52.254;12.988;2022-10-31T06:48:48;14.13;;;10.80;;
5823;SDS011;2938;52.254;12.988;2022-10-31T06:51:13;24.45;;;12.10;;
5823;SDS011;2938;52.254;12.988;2022-10-31T06:53:39;22.40;;;12.57;;
5823;SDS011;2938;52.254;12.988;2022-10-31T06:56:04;18.77;;;12.93;;
5823;SDS011;2938;52.254;12.988;2022-10-31T06:58:29;17.13;;;12.50;;
5823;SDS011;2938;52.254;12.988;2022-10-31T07:00:55;15.13;;;12.02;;
5823;SDS011;2938;52.254;12.988;2022-10-31T07:03:24;19.55;;;11.40;;
5823;SDS011;2938;52.254;12.988;2022-10-31T07:05:49;14.10;;;10.65;;
5823;SDS011;2938;52.254;12.988;2022-10-31T07:08:14;21.30;;;12.43;;
5823;SDS011;2938;52.254;12.988;2022-10-31T07:10:40;22.92;;;11.23;;
5823;SDS011;2938;52.254;12.988;2022-10-31T07:13:11;20.25;;;11.20;;
5823;SDS011;2938;52.254;12.988;2022-10-31T07:15:38;15.40;;;10.68;;
5823;SDS011;2938;52.254;12.988;2022-10-31T07:18:05;16.88;;;10.55;;
5823;SDS011;2938;52.254;12.988;2022-10-31T07:20:32;19.55;;;12.52;;
5823;SDS011;2938;52.254;12.988;2022-10-31T07:22:57;18.50;;;11.30;;
5823;SDS011;2938;52.254;12.988;2022-10-31T07:25:23;19.92;;;10.95;;
5823;SDS011;2938;52.254;12.988;2022-10-31T07:27:48;19.88;;;11.85;;
5823;SDS011;2938;52.254;12.988;2022-10-31T07:30:14;17.05;;;11.70;;
5823;SDS011;2938;52.254;12.988;2022-10-31T07:32:43;17.08;;;10.27;;
5823;SDS011;2938;52.254;12.988;2022-10-31T07:35:10;12.05;;;8.82;;
5823;SDS011;2938;52.254;12.988;2022-10-31T07:37:37;20.70;;;8.75;;
5823;SDS011;2938;52.254;12.988;2022-10-31T07:40:03;18.90;;;10.43;;
5823;SDS011;2938;52.254;12.988;2022-10-31T07:42:33;19.10;;;9.38;;
5823;SDS011;2938;52.254;12.988;2022-10-31T07:45:03;15.77;;;10.88;;
5823;SDS011;2938;52.254;12.988;2022-10-31T07:47:29;30.60;;;11.35;;
5823;SDS011;2938;52.254;12.988;2022-10-31T07:49:54;16.30;;;9.75;;
5823;SDS011;2938;52.254;12.988;2022-10-31T07:52:19;23.25;;;11.23;;
5823;SDS011;2938;52.254;12.988;2022-10-31T07:54:45;19.38;;;9.38;;
5823;SDS011;2938;52.254;12.988;2022-10-31T07:57:10;14.27;;;10.02;;
5823;SDS011;2938;52.254;12.988;2022-10-31T07:59:35;18.90;;;11.43;;
5823;SDS011;2938;52.254;12.988;2022-10-31T08:02:01;20.38;;;10.48;;
5823;SDS011;2938;52.254;12.988;2022-10-31T08:04:26;23.02;;;10.90;;
5823;SDS011;2938;52.254;12.988;2022-10-31T08:06:51;13.95;;;9.60;;
5823;SDS011;2938;52.254;12.988;2022-10-31T08:09:17;26.10;;;12.52;;
5823;SDS011;2938;52.254;12.988;2022-10-31T08:11:42;20.42;;;11.65;;
5823;SDS011;2938;52.254;12.988;2022-10-31T08:14:07;19.52;;;12.43;;
5823;SDS011;2938;52.254;12.988;2022-10-31T08:16:33;24.00;;;14.27;;
5823;SDS011;2938;52.254;12.988;2022-10-31T08:18:58;21.55;;;14.38;;
5823;SDS011;2938;52.254;12.988;2022-10-31T08:21:23;20.83;;;13.15;;
5823;SDS011;2938;52.254;12.988;2022-10-31T08:23:49;23.98;;;14.70;;
5823;SDS011;2938;52.254;12.988;2022-10-31T08:26:14;17.63;;;13.27;;
5823;SDS011;2938;52.254;12.988;2022-10-31T08:28:39;23.67;;;14.95;;
5823;SDS011;2938;52.254;12.988;2022-10-31T08:31:05;20.40;;;12.80;;
5823;SDS011;2938;52.254;12.988;2022-10-31T08:33:30;24.23;;;12.43;;
5823;SDS011;2938;52.254;12.988;2022-10-31T08:35:57;22.50;;;11.88;;
5823;SDS011;2938;52.254;12.988;2022-10-31T08:38:23;16.92;;;11.45;;
5823;SDS011;2938;52.254;12.988;2022-10-31T08:40:48;29.38;;;13.13;;
5823;SDS011;2938;52.254;12.988;2022-10-31T08:43:15;19.20;;;12.43;;
5823;SDS011;2938;52.254;12.988;2022-10-31T08:45:41;23.13;;;13.80;;
5823;SDS011;2938;52.254;12.988;2022-10-31T08:48:09;24.27;;;14.65;;
5823;SDS011;2938;52.254;12.988;2022-10-31T08:50:36;22.52;;;13.95;;
5823;SDS011;2938;52.254;12.988;2022-10-31T08:53:06;23.60;;;14.30;;
5823;SDS011;2938;52.254;12.988;2022-10-31T08:55:33;17.55;;;13.75;;
5823;SDS011;2938;52.254;12.988;2022-10-31T08:58:00;32.70;;;15.80;;
5823;SDS011;2938;52.254;12.988;2022-10-31T09:00:27;24.00;;;15.70;;
5823;SDS011;2938;52.254;12.988;2022-10-31T09:03:00;20.75;;;14.65;;
5823;SDS011;2938;52.254;12.988;2022-10-31T09:05:26;27.23;;;14.07;;
5823;SDS011;2938;52.254;12.988;2022-10-31T09:07:58;20.92;;;13.82;;
5823;SDS011;2938;52.254;12.988;2022-10-31T09:10:29;23.85;;;15.25;;
5823;SDS011;2938;52.254;12.988;2022-10-31T09:12:58;25.70;;;15.43;;
5823;SDS011;2938;52.254;12.988;2022-10-31T09:15:25;19.45;;;13.35;;
5823;SDS011;2938;52.254;12.988;2022-10-31T09:17:50;28.55;;;16.70;;
5823;SDS011;2938;52.254;12.988;2022-10-31T09:20:16;29.80;;;18.90;;
5823;SDS011;2938;52.254;12.988;2022-10-31T09:22:41;25.20;;;15.68;;
5823;SDS011;2938;52.254;12.988;2022-10-31T09:25:07;25.00;;;15.88;;
5823;SDS011;2938;52.254;12.988;2022-10-31T09:27:33;26.58;;;14.50;;
5823;SDS011;2938;52.254;12.988;2022-10-31T09:29:58;34.30;;;16.38;;
5823;SDS011;2938;52.254;12.988;2022-10-31T09:32:24;55.97;;;18.95;;
5823;SDS011;2938;52.254;12.988;2022-10-31T09:34:49;24.58;;;16.63;;
5823;SDS011;2938;52.254;12.988;2022-10-31T09:37:17;27.70;;;15.10;;
5823;SDS011;2938;52.254;12.988;2022-10-31T09:39:42;25.55;;;16.45;;
5823;SDS011;2938;52.254;12.988;2022-10-31T09:44:55;31.67;;;18.25;;
5823;SDS011;2938;52.254;12.988;2022-10-31T09:47:27;32.45;;;20.13;;
5823;SDS011;2938;52.254;12.988;2022-10-31T09:50:06;34.05;;;17.75;;
5823;SDS011;2938;52.254;12.988;2022-10-31T09:52:38;31.55;;;18.30;;
5823;SDS011;2938;52.254;12.988;2022-10-31T09:58:15;33.85;;;20.02;;
5823;SDS011;2938;52.254;12.988;2022-10-31T10:00:42;36.15;;;19.67;;
5823;SDS011;2938;52.254;12.988;2022-10-31T10:03:14;31.88;;;18.50;;
5823;SDS011;2938;52.254;12.988;2022-10-31T10:05:48;28.55;;;19.75;;
5823;SDS011;2938;52.254;12.988;2022-10-31T10:08:41;28.27;;;19.25;;
5823;SDS011;2938;52.254;12.988;2022-10-31T10:16:25;38.35;;;20.13;;
5823;SDS011;2938;52.254;12.988;2022-10-31T10:24:17;36.63;;;20.73;;
5823;SDS011;2938;52.254;12.988;2022-10-31T10:26:57;42.25;;;20.10;;
5823;SDS011;2938;52.254;12.988;2022-10-31T10:29:31;30.73;;;17.67;;
5823;SDS011;2938;52.254;12.988;2022-10-31T10:32:00;35.13;;;19.98;;
5823;SDS011;2938;52.254;12.988;2022-10-31T10:34:31;38.53;;;20.63;;
5823;SDS011;2938;52.254;12.988;2022-10-31T10:37:03;34.80;;;21.40;;
5823;SDS011;2938;52.254;12.988;2022-10-31T10:39:32;39.60;;;21.60;;
5823;SDS011;2938;52.254;12.988;2022-10-31T10:42:04;27.27;;;19.55;;
5823;SDS011;2938;52.254;12.988;2022-10-31T10:44:54;36.42;;;21.67;;
5823;SDS011;2938;52.254;12.988;2022-10-31T10:47:42;38.20;;;20.95;;
5823;SDS011;2938;52.254;12.988;2022-10-31T10:52:43;42.63;;;21.33;;
5823;SDS011;2938;52.254;12.988;2022-10-31T10:58:03;40.55;;;21.92;;
5823;SDS011;2938;52.254;12.988;2022-10-31T11:02:56;36.00;;;23.33;;
5823;SDS011;2938;52.254;12.988;2022-10-31T11:05:38;38.83;;;23.85;;
5823;SDS011;2938;52.254;12.988;2022-10-31T11:08:07;43.92;;;23.02;;
5823;SDS011;2938;52.254;12.988;2022-10-31T11:10:33;43.40;;;23.17;;
5823;SDS011;2938;52.254;12.988;2022-10-31T11:15:38;35.28;;;22.38;;
5823;SDS011;2938;52.254;12.988;2022-10-31T11:18:19;40.13;;;22.65;;
5823;SDS011;2938;52.254;12.988;2022-10-31T11:20:50;33.53;;;22.48;;
5823;SDS011;2938;52.254;12.988;2022-10-31T11:23:18;39.22;;;22.40;;
5823;SDS011;2938;52.254;12.988;2022-10-31T11:25:49;38.92;;;23.50;;
5823;SDS011;2938;52.254;12.988;2022-10-31T11:28:28;38.13;;;23.50;;
5823;SDS011;2938;52.254;12.988;2022-10-31T11:30:55;38.42;;;23.27;;
5823;SDS011;2938;52.254;12.988;2022-10-31T11:33:35;36.45;;;24.45;;
5823;SDS011;2938;52.254;12.988;2022-10-31T11:36:21;44.92;;;24.90;;
5823;SDS011;2938;52.254;12.988;2022-10-31T11:38:49;46.50;;;26.58;;
5823;SDS011;2938;52.254;12.988;2022-10-31T11:41:16;41.70;;;27.88;;
5823;SDS011;2938;52.254;12.988;2022-10-31T11:43:52;47.25;;;25.80;;
5823;SDS011;2938;52.254;12.988;2022-10-31T11:46:21;47.70;;;26.83;;
5823;SDS011;2938;52.254;12.988;2022-10-31T11:48:50;46.65;;;26.13;;
5823;SDS011;2938;52.254;12.988;2022-10-31T11:51:24;52.72;;;28.50;;
5823;SDS011;2938;52.254;12.988;2022-10-31T11:53:52;49.53;;;26.77;;
5823;SDS011;2938;52.254;12.988;2022-10-31T11:56:19;42.95;;;24.83;;
5823;SDS011;2938;52.254;12.988;2022-10-31T11:58:54;47.80;;;25.67;;
5823;SDS011;2938;52.254;12.988;2022-10-31T12:01:31;50.45;;;26.15;;
5823;SDS011;2938;52.254;12.988;2022-10-31T12:04:07;47.67;;;29.13;;
5823;SDS011;2938;52.254;12.988;2022-10-31T12:06:35;49.15;;;26.77;;
5823;SDS011;2938;52.254;12.988;2022-10-31T12:09:25;54.13;;;28.08;;
5823;SDS011;2938;52.254;12.988;2022-10-31T12:12:10;46.17;;;25.45;;
5823;SDS011;2938;52.254;12.988;2022-10-31T12:15:00;47.00;;;26.10;;
5823;SDS011;2938;52.254;12.988;2022-10-31T12:26:28;45.92;;;24.60;;
5823;SDS011;2938;52.254;12.988;2022-10-31T12:29:27;48.10;;;24.48;;
5823;SDS011;2938;52.254;12.988;2022-10-31T12:32:08;45.15;;;25.13;;
5823;SDS011;2938;52.254;12.988;2022-10-31T12:34:47;47.83;;;23.63;;
5823;SDS011;2938;52.254;12.988;2022-10-31T12:45:31;46.13;;;26.48;;
5823;SDS011;2938;52.254;12.988;2022-10-31T12:53:31;50.17;;;24.48;;
5823;SDS011;2938;52.254;12.988;2022-10-31T12:56:10;44.72;;;25.83;;
5823;SDS011;2938;52.254;12.988;2022-10-31T12:58:49;47.50;;;26.00;;
5823;SDS011;2938;52.254;12.988;2022-10-31T13:03:48;35.20;;;22.53;;
5823;SDS011;2938;52.254;12.988;2022-10-31T13:06:48;43.90;;;25.10;;
5823;SDS011;2938;52.254;12.988;2022-10-31T13:09:17;35.40;;;22.42;;
5823;SDS011;2938;52.254;12.988;2022-10-31T13:11:56;48.50;;;26.15;;
5823;SDS011;2938;52.254;12.988;2022-10-31T13:14:36;44.30;;;24.85;;
5823;SDS011;2938;52.254;12.988;2022-10-31T13:17:04;44.67;;;26.48;;
5823;SDS011;2938;52.254;12.988;2022-10-31T13:19:31;47.35;;;25.85;;
5823;SDS011;2938;52.254;12.988;2022-10-31T13:22:04;48.80;;;26.27;;
5823;SDS011;2938;52.254;12.988;2022-10-31T13:24:36;52.80;;;27.42;;
5823;SDS011;2938;52.254;12.988;2022-10-31T13:27:20;47.25;;;26.35;;
5823;SDS011;2938;52.254;12.988;2022-10-31T13:32:19;46.97;;;28.67;;
5823;SDS011;2938;52.254;12.988;2022-10-31T13:34:45;52.30;;;28.83;;
5823;SDS011;2938;52.254;12.988;2022-10-31T13:42:37;55.65;;;31.88;;
5823;SDS011;2938;52.254;12.988;2022-10-31T13:45:26;61.42;;;33.10;;
5823;SDS011;2938;52.254;12.988;2022-10-31T13:47:59;69.40;;;33.40;;
5823;SDS011;2938;52.254;12.988;2022-10-31T13:50:29;65.57;;;34.53;;
5823;SDS011;2938;52.254;12.988;2022-10-31T13:55:48;60.25;;;34.28;;
5823;SDS011;2938;52.254;12.988;2022-10-31T13:58:25;59.72;;;33.58;;
5823;SDS011;2938;52.254;12.988;2022-10-31T14:00:58;58.55;;;34.40;;
5823;SDS011;2938;52.254;12.988;2022-10-31T14:03:30;54.72;;;34.83;;
5823;SDS011;2938;52.254;12.988;2022-10-31T14:06:01;66.18;;;37.50;;
5823;SDS011;2938;52.254;12.988;2022-10-31T14:08:26;69.32;;;37.20;;
5823;SDS011;2938;52.254;12.988;2022-10-31T14:10:53;82.45;;;41.58;;
5823;SDS011;2938;52.254;12.988;2022-10-31T14:13:31;58.53;;;35.55;;
5823;SDS011;2938;52.254;12.988;2022-10-31T14:16:02;61.60;;;40.30;;
5823;SDS011;2938;52.254;12.988;2022-10-31T14:20:56;72.75;;;39.90;;
5823;SDS011;2938;52.254;12.988;2022-10-31T14:28:46;73.13;;;41.80;;
5823;SDS011;2938;52.254;12.988;2022-10-31T14:34:18;73.55;;;40.55;;
5823;SDS011;2938;52.254;12.988;2022-10-31T14:37:07;69.30;;;43.45;;
5823;SDS011;2938;52.254;12.988;2022-10-31T14:39:46;74.20;;;45.40;;
5823;SDS011;2938;52.254;12.988;2022-10-31T14:45:55;79.13;;;43.20;;
5823;SDS011;2938;52.254;12.988;2022-10-31T14:51:16;81.63;;;46.53;;
5823;SDS011;2938;52.254;12.988;2022-10-31T14:53:46;81.80;;;45.75;;
5823;SDS011;2938;52.254;12.988;2022-10-31T14:56:13;78.35;;;47.00;;
5823;SDS011;2938;52.254;12.988;2022-10-31T15:01:27;74.47;;;44.72;;
5823;SDS011;2938;52.254;12.988;2022-10-31T15:03:55;88.57;;;48.90;;
5823;SDS011;2938;52.254;12.988;2022-10-31T15:06:25;85.82;;;50.25;;
5823;SDS011;2938;52.254;12.988;2022-10-31T15:08:51;86.43;;;52.58;;
5823;SDS011;2938;52.254;12.988;2022-10-31T15:11:19;83.65;;;51.22;;
5823;SDS011;2938;52.254;12.988;2022-10-31T15:13:56;90.82;;;51.67;;
5823;SDS011;2938;52.254;12.988;2022-10-31T15:16:33;85.15;;;49.33;;
5823;SDS011;2938;52.254;12.988;2022-10-31T15:19:00;88.35;;;49.78;;
5823;SDS011;2938;52.254;12.988;2022-10-31T15:21:28;92.65;;;49.72;;
5823;SDS011;2938;52.254;12.988;2022-10-31T15:23:54;89.35;;;52.28;;
5823;SDS011;2938;52.254;12.988;2022-10-31T15:26:22;83.82;;;50.05;;
5823;SDS011;2938;52.254;12.988;2022-10-31T15:31:51;82.55;;;51.63;;
5823;SDS011;2938;52.254;12.988;2022-10-31T15:34:38;93.07;;;53.05;;
5823;SDS011;2938;52.254;12.988;2022-10-31T15:37:08;77.43;;;49.70;;
5823;SDS011;2938;52.254;12.988;2022-10-31T15:39:36;84.10;;;46.38;;
5823;SDS011;2938;52.254;12.988;2022-10-31T15:42:01;68.15;;;44.42;;
5823;SDS011;2938;52.254;12.988;2022-10-31T15:44:28;72.28;;;44.80;;
5823;SDS011;2938;52.254;12.988;2022-10-31T15:47:03;68.65;;;48.10;;
5823;SDS011;2938;52.254;12.988;2022-10-31T15:52:01;70.90;;;43.75;;
5823;SDS011;2938;52.254;12.988;2022-10-31T15:54:28;81.97;;;49.60;;
5823;SDS011;2938;52.254;12.988;2022-10-31T15:56:54;100.47;;;52.67;;
5823;SDS011;2938;52.254;12.988;2022-10-31T15:59:20;87.65;;;49.58;;
5823;SDS011;2938;52.254;12.988;2022-10-31T16:02:03;103.93;;;54.47;;
5823;SDS011;2938;52.254;12.988;2022-10-31T16:04:33;89.60;;;48.15;;
5823;SDS011;2938;52.254;12.988;2022-10-31T16:07:11;104.78;;;52.83;;
5823;SDS011;2938;52.254;12.988;2022-10-31T16:09:48;105.13;;;53.47;;
5823;SDS011;2938;52.254;12.988;2022-10-31T16:12:17;125.40;;;59.35;;
5823;SDS011;2938;52.254;12.988;2022-10-31T16:14:42;140.45;;;59.70;;
5823;SDS011;2938;52.254;12.988;2022-10-31T16:17:11;128.38;;;61.17;;
5823;SDS011;2938;52.254;12.988;2022-10-31T16:19:43;154.25;;;66.82;;
5823;SDS011;2938;52.254;12.988;2022-10-31T16:22:14;127.20;;;64.57;;
5823;SDS011;2938;52.254;12.988;2022-10-31T16:24:46;120.68;;;65.38;;
5823;SDS011;2938;52.254;12.988;2022-10-31T16:27:28;135.02;;;64.97;;
5823;SDS011;2938;52.254;12.988;2022-10-31T16:29:56;140.57;;;58.30;;
5823;SDS011;2938;52.254;12.988;2022-10-31T16:33:05;110.38;;;59.25;;